Time;durP1;ratioP1;P1;durP2;ratioP2;P2;SDS_P1;SDS_P2;PMS_P1;PMS_P2;Temp;Humidity;BMP_temperature;BMP_pressure;BME280_temperature;BME280_humidity;BME280_pressure;Samples;Min_cycle;Max_cycle;Signal;HPM_P1;HPM_P2
2023/06/11 00:01:46;;;;;;;13.70;6.25;;;18.10;99.90;;;;;;4885143;29;20040;-88
2023/06/11 00:04:12;;;;;;;13.00;5.95;;;18.00;99.90;;;;;;4884609;29;20123;-89
2023/06/11 00:06:39;;;;;;;14.70;6.65;;;18.10;99.90;;;;;;4884288;29;20124;-89
2023/06/11 00:09:05;;;;;;;18.35;6.70;;;18.10;99.90;;;;;;4900228;29;20029;-89
2023/06/11 00:11:34;;;;;;;16.60;6.40;;;18.10;99.90;;;;;;4884516;29;20081;-89
2023/06/11 00:14:00;;;;;;;19.83;6.40;;;18.00;99.90;;;;;;4868527;29;20040;-89
2023/06/11 00:16:30;;;;;;;15.52;6.60;;;18.00;99.90;;;;;;4869363;29;20040;-89
2023/06/11 00:18:56;;;;;;;16.38;6.05;;;18.00;99.90;;;;;;4900832;29;20025;-89
2023/06/11 00:21:22;;;;;;;12.05;6.20;;;18.00;99.90;;;;;;4869396;29;20050;-88
2023/06/11 00:23:48;;;;;;;18.50;6.25;;;18.00;99.90;;;;;;4865523;29;20466;-89
2023/06/11 00:26:14;;;;;;;14.52;6.35;;;18.00;99.90;;;;;;4865873;29;20037;-89
2023/06/11 00:28:42;;;;;;;13.27;6.32;;;17.90;99.90;;;;;;4865966;29;20088;-89
2023/06/11 00:31:10;;;;;;;17.60;6.47;;;18.00;99.90;;;;;;4866059;29;20296;-88
2023/06/11 00:33:36;;;;;;;11.93;6.15;;;17.90;99.90;;;;;;4865361;29;20438;-90
2023/06/11 00:36:02;;;;;;;15.43;6.88;;;17.90;99.90;;;;;;4865781;29;20041;-89
2023/06/11 00:38:29;;;;;;;14.82;6.47;;;17.90;99.90;;;;;;4865575;29;20482;-88
2023/06/11 00:40:56;;;;;;;12.88;6.88;;;17.90;99.90;;;;;;4880515;29;20658;-89
2023/06/11 00:43:23;;;;;;;14.70;7.25;;;17.90;99.90;;;;;;4880869;29;20041;-89
2023/06/11 00:45:54;;;;;;;15.05;7.82;;;17.90;99.90;;;;;;4896396;29;20064;-89
2023/06/11 00:48:20;;;;;;;17.05;7.05;;;17.90;99.90;;;;;;4865600;29;20040;-89
2023/06/11 00:50:51;;;;;;;14.18;6.55;;;18.00;99.90;;;;;;4881191;29;20067;-89
2023/06/11 00:53:19;;;;;;;16.38;7.55;;;18.00;99.90;;;;;;4881013;29;20029;-89
2023/06/11 00:55:45;;;;;;;14.70;7.20;;;17.90;99.90;;;;;;4899508;29;20031;-89
2023/06/11 00:58:17;;;;;;;14.15;7.72;;;17.90;99.90;;;;;;4868990;29;20360;-88
2023/06/11 01:00:49;;;;;;;21.48;7.40;;;17.90;99.90;;;;;;4900154;29;20041;-88
2023/06/11 01:03:21;;;;;;;16.90;7.72;;;17.90;99.90;;;;;;4898977;29;20081;-89
2023/06/11 01:06:02;;;;;;;15.20;7.43;;;17.90;99.90;;;;;;4899572;29;20112;-89
2023/06/11 01:08:34;;;;;;;14.07;7.95;;;17.90;99.90;;;;;;4899384;29;20037;-88
2023/06/11 01:11:01;;;;;;;13.32;7.00;;;17.80;99.90;;;;;;4899434;29;20047;-89
2023/06/11 01:13:30;;;;;;;14.30;7.47;;;17.80;99.90;;;;;;4883212;29;20037;-89
2023/06/11 01:16:03;;;;;;;17.35;7.75;;;17.90;99.90;;;;;;4899388;29;20092;-89
2023/06/11 01:18:37;;;;;;;13.43;7.18;;;17.90;99.90;;;;;;4883871;29;20334;-89
2023/06/11 01:21:18;;;;;;;14.18;7.07;;;17.90;99.90;;;;;;4883933;29;20032;-89
2023/06/11 01:24:04;;;;;;;16.23;7.88;;;17.90;99.90;;;;;;4899151;29;20044;-88
2023/06/11 01:26:42;;;;;;;13.38;7.18;;;17.90;99.90;;;;;;4868530;29;20036;-89
2023/06/11 01:29:10;;;;;;;15.98;7.78;;;17.90;99.90;;;;;;4868679;29;20084;-89
2023/06/11 01:31:40;;;;;;;16.95;7.55;;;17.90;99.90;;;;;;4915245;29;20029;-89
2023/06/11 01:34:10;;;;;;;13.05;6.93;;;17.90;99.90;;;;;;4914626;29;20034;-89
2023/06/11 01:36:37;;;;;;;15.68;8.15;;;17.90;99.90;;;;;;4849994;29;20057;-90
2023/06/11 01:39:04;;;;;;;15.45;7.72;;;17.90;99.90;;;;;;4880429;29;20055;-89
2023/06/11 01:41:57;;;;;;;13.32;8.15;;;17.90;99.90;;;;;;4880823;29;20037;-90
2023/06/11 01:44:25;;;;;;;17.88;8.40;;;17.90;99.90;;;;;;4883629;29;20061;-89
2023/06/11 01:46:51;;;;;;;14.45;8.00;;;17.90;99.90;;;;;;4886231;29;20044;-89
2023/06/11 01:49:17;;;;;;;12.70;7.85;;;17.90;99.90;;;;;;4871817;29;20065;-89
2023/06/11 01:51:44;;;;;;;12.85;8.38;;;17.90;99.90;;;;;;4902586;29;20039;-91
2023/06/11 01:54:10;;;;;;;15.38;7.47;;;17.90;99.90;;;;;;4886953;29;20108;-89
2023/06/11 01:56:36;;;;;;;15.43;8.05;;;17.90;99.90;;;;;;4886922;29;20040;-89
2023/06/11 01:59:05;;;;;;;14.88;8.30;;;17.90;99.90;;;;;;4871948;29;20043;-89
2023/06/11 02:01:36;;;;;;;12.38;7.55;;;18.00;99.90;;;;;;4902786;29;20426;-89
2023/06/11 02:04:04;;;;;;;11.02;8.13;;;17.90;99.90;;;;;;4868076;29;20064;-89
2023/06/11 02:06:30;;;;;;;14.00;8.05;;;17.90;99.90;;;;;;4883351;29;20037;-89
2023/06/11 02:08:56;;;;;;;14.18;7.88;;;17.90;99.90;;;;;;4883669;29;20116;-90
2023/06/11 02:11:22;;;;;;;13.13;8.02;;;17.90;99.90;;;;;;4868039;29;20037;-89
2023/06/11 02:13:48;;;;;;;17.65;8.15;;;17.90;99.90;;;;;;4867225;29;20044;-90
2023/06/11 02:16:14;;;;;;;13.77;7.70;;;17.90;99.90;;;;;;4883421;29;20036;-89
2023/06/11 02:18:40;;;;;;;12.50;7.47;;;18.00;99.90;;;;;;4870872;29;20051;-90
2023/06/11 02:21:06;;;;;;;15.07;7.65;;;18.00;99.90;;;;;;4886531;29;20040;-89
2023/06/11 02:23:36;;;;;;;13.48;8.07;;;18.00;99.90;;;;;;4901801;29;20048;-89
2023/06/11 02:26:02;;;;;;;13.63;8.00;;;18.00;99.90;;;;;;4886590;29;20418;-90
2023/06/11 02:28:28;;;;;;;15.18;8.15;;;17.90;99.90;;;;;;4917707;29;20032;-87
2023/06/11 02:30:54;;;;;;;16.15;8.05;;;17.90;99.90;;;;;;4870826;29;20063;-88
2023/06/11 02:33:21;;;;;;;14.00;8.07;;;17.90;99.90;;;;;;4898719;29;20037;-86
2023/06/11 02:35:47;;;;;;;11.68;7.65;;;17.90;99.90;;;;;;4883069;29;20041;-87
2023/06/11 02:38:15;;;;;;;13.00;8.85;;;17.80;99.90;;;;;;4867424;29;20109;-86
2023/06/11 02:40:41;;;;;;;13.85;8.15;;;17.90;99.90;;;;;;4883041;29;20116;-87
2023/06/11 02:43:07;;;;;;;11.02;7.72;;;17.80;99.90;;;;;;4882603;29;20039;-87
2023/06/11 02:45:35;;;;;;;13.57;8.35;;;17.90;99.90;;;;;;4882647;29;20358;-86
2023/06/11 02:48:02;;;;;;;12.63;8.35;;;17.80;99.90;;;;;;4866828;29;20501;-87
2023/06/11 02:50:27;;;;;;;12.95;8.45;;;17.80;99.90;;;;;;4867325;29;20044;-87
2023/06/11 02:52:54;;;;;;;12.93;8.45;;;17.80;99.90;;;;;;4891525;29;20037;-87
2023/06/11 02:55:22;;;;;;;14.98;8.05;;;17.80;99.90;;;;;;4871016;29;20032;-87
2023/06/11 02:57:51;;;;;;;13.35;9.27;;;17.80;99.90;;;;;;4855431;29;20076;-89
2023/06/11 03:00:17;;;;;;;13.77;8.40;;;17.70;99.90;;;;;;4870356;29;20075;-87
2023/06/11 03:02:43;;;;;;;11.98;8.38;;;17.70;99.90;;;;;;4839782;29;20411;-87
2023/06/11 03:05:09;;;;;;;12.15;8.20;;;17.70;99.90;;;;;;4885453;29;20119;-87
2023/06/11 03:07:35;;;;;;;16.55;8.00;;;17.70;99.90;;;;;;4869797;29;20051;-87
2023/06/11 03:10:01;;;;;;;15.68;8.77;;;17.70;99.90;;;;;;4885505;29;20032;-87
2023/06/11 03:12:27;;;;;;;13.73;8.77;;;17.70;99.90;;;;;;4882122;29;20037;-87
2023/06/11 03:14:53;;;;;;;13.80;8.52;;;17.70;99.90;;;;;;4882327;29;20033;-88
2023/06/11 03:17:19;;;;;;;11.55;8.20;;;17.70;99.90;;;;;;4870213;29;20454;-87
2023/06/11 03:19:45;;;;;;;12.68;8.73;;;17.70;99.90;;;;;;4870096;29;20445;-87
2023/06/11 03:22:11;;;;;;;12.63;8.18;;;17.70;99.90;;;;;;4869976;29;20048;-87
2023/06/11 03:24:38;;;;;;;10.82;8.13;;;17.60;99.90;;;;;;4851332;29;20037;-87
2023/06/11 03:27:13;;;;;;;12.50;8.63;;;17.60;99.90;;;;;;4867738;29;20111;-87
2023/06/11 03:29:39;;;;;;;14.15;8.23;;;17.60;99.90;;;;;;4882298;29;20041;-87
2023/06/11 03:32:05;;;;;;;14.85;8.05;;;17.60;99.90;;;;;;4897539;29;20044;-87
2023/06/11 03:34:31;;;;;;;12.13;8.20;;;17.50;99.90;;;;;;4881986;29;20029;-86
2023/06/11 03:36:59;;;;;;;11.90;8.10;;;17.60;99.90;;;;;;4895656;29;20044;-86
2023/06/11 03:39:25;;;;;;;12.43;9.00;;;17.60;99.90;;;;;;4885121;29;20032;-87
2023/06/11 03:41:54;;;;;;;12.00;7.88;;;17.60;99.90;;;;;;4885122;29;20044;-87
2023/06/11 03:44:22;;;;;;;12.90;8.30;;;17.60;99.90;;;;;;4869563;29;20336;-87
2023/06/11 03:46:48;;;;;;;11.40;8.18;;;17.60;99.90;;;;;;4869631;29;20043;-88
2023/06/11 03:49:14;;;;;;;12.80;8.90;;;17.60;99.90;;;;;;4854150;29;20521;-87
2023/06/11 03:51:40;;;;;;;9.48;7.75;;;17.50;99.90;;;;;;4885170;29;20036;-87
2023/06/11 03:54:06;;;;;;;12.30;8.25;;;17.50;99.90;;;;;;4868979;29;20033;-86
2023/06/11 03:56:33;;;;;;;9.90;8.18;;;17.60;99.90;;;;;;4869798;29;20101;-87
2023/06/11 03:58:59;;;;;;;10.65;8.00;;;17.60;99.90;;;;;;4884558;29;20048;-87
2023/06/11 04:01:25;;;;;;;12.60;8.05;;;17.60;99.90;;;;;;4869307;29;20036;-87
2023/06/11 04:03:52;;;;;;;13.85;8.25;;;17.60;99.90;;;;;;4900127;29;20180;-87
2023/06/11 04:06:18;;;;;;;13.18;8.30;;;17.60;99.90;;;;;;4869530;29;20044;-86
2023/06/11 04:08:44;;;;;;;13.35;8.18;;;17.60;99.90;;;;;;4883948;29;20048;-86
2023/06/11 04:11:11;;;;;;;11.30;8.32;;;17.60;99.90;;;;;;4869218;29;20080;-87
2023/06/11 04:13:37;;;;;;;17.30;8.65;;;17.60;99.90;;;;;;4884564;29;20041;-86
2023/06/11 04:16:03;;;;;;;9.90;8.25;;;17.60;99.90;;;;;;4869194;29;20052;-87
2023/06/11 04:18:29;;;;;;;11.15;8.60;;;17.60;99.90;;;;;;4887178;29;20136;-87
2023/06/11 04:20:56;;;;;;;9.45;8.10;;;17.60;99.90;;;;;;4881567;29;20045;-87
2023/06/11 04:23:22;;;;;;;11.82;8.85;;;17.60;99.90;;;;;;4896450;29;20377;-87
2023/06/11 04:25:51;;;;;;;12.95;9.07;;;17.70;99.90;;;;;;4881478;29;20033;-86
2023/06/11 04:28:19;;;;;;;12.02;8.05;;;17.60;99.90;;;;;;4881818;29;20046;-87
2023/06/11 04:30:46;;;;;;;12.60;8.40;;;17.70;99.90;;;;;;4881325;29;20453;-87
2023/06/11 04:33:15;;;;;;;11.15;8.20;;;17.70;99.90;;;;;;4865710;29;20045;-87
2023/06/11 04:35:43;;;;;;;15.32;8.50;;;17.70;99.90;;;;;;4881185;29;20335;-87
2023/06/11 04:38:10;;;;;;;11.68;8.18;;;17.70;99.90;;;;;;4880993;29;20427;-86
2023/06/11 04:40:38;;;;;;;10.98;8.80;;;17.70;99.90;;;;;;4881452;29;20049;-86
2023/06/11 04:43:06;;;;;;;11.60;8.90;;;17.70;99.90;;;;;;4899557;29;20047;-87
2023/06/11 04:45:33;;;;;;;12.68;9.23;;;17.80;99.90;;;;;;4884304;29;20052;-86
2023/06/11 04:48:03;;;;;;;11.20;8.93;;;17.80;99.90;;;;;;4865307;29;20358;-86
2023/06/11 04:50:31;;;;;;;13.43;8.60;;;17.80;99.90;;;;;;4850748;29;20486;-86
2023/06/11 04:53:01;;;;;;;13.43;8.75;;;17.80;99.90;;;;;;4896433;29;20113;-87
2023/06/11 04:55:27;;;;;;;10.80;8.40;;;17.90;99.90;;;;;;4865706;29;20061;-86
2023/06/11 04:57:56;;;;;;;13.63;9.10;;;17.90;99.90;;;;;;4907132;29;20073;-86
2023/06/11 05:00:23;;;;;;;11.32;8.90;;;17.90;99.90;;;;;;4868978;29;20048;-86
2023/06/11 05:02:51;;;;;;;13.65;9.57;;;18.00;99.90;;;;;;4865470;29;20041;-86
2023/06/11 05:05:18;;;;;;;14.32;9.38;;;18.00;99.90;;;;;;4880616;29;20327;-87
2023/06/11 05:07:44;;;;;;;10.75;9.40;;;18.00;99.90;;;;;;4880846;29;20041;-87
2023/06/11 05:10:10;;;;;;;13.23;9.23;;;18.10;99.90;;;;;;4850166;29;20041;-87
2023/06/11 05:12:37;;;;;;;10.77;9.23;;;18.10;99.90;;;;;;4880957;29;20111;-86
2023/06/11 05:15:03;;;;;;;12.32;9.05;;;18.20;99.90;;;;;;4896345;29;20113;-89
2023/06/11 05:17:30;;;;;;;12.60;9.35;;;18.20;99.90;;;;;;4868604;29;20048;-86
2023/06/11 05:19:56;;;;;;;11.00;8.57;;;18.20;99.90;;;;;;4884553;29;20122;-86
2023/06/11 05:22:23;;;;;;;12.38;9.77;;;18.20;99.90;;;;;;4886915;29;20418;-86
2023/06/11 05:24:49;;;;;;;12.50;9.07;;;18.30;99.90;;;;;;4871870;29;20053;-87
2023/06/11 05:27:15;;;;;;;12.85;9.45;;;18.30;99.90;;;;;;4871874;29;20044;-87
2023/06/11 05:29:43;;;;;;;11.68;9.73;;;18.30;99.90;;;;;;4887633;29;20184;-87
2023/06/11 05:32:09;;;;;;;10.75;9.43;;;18.40;99.90;;;;;;4859339;29;20045;-87
2023/06/11 05:34:37;;;;;;;12.45;9.27;;;18.40;99.90;;;;;;4914698;29;20033;-88
2023/06/11 05:37:07;;;;;;;12.40;9.60;;;18.50;99.90;;;;;;4872272;29;20040;-86
2023/06/11 05:39:35;;;;;;;12.27;9.38;;;18.50;99.90;;;;;;4887373;29;20036;-85
2023/06/11 05:42:03;;;;;;;11.20;9.20;;;18.50;99.90;;;;;;4902680;29;20430;-85
2023/06/11 05:44:31;;;;;;;13.50;9.60;;;18.60;99.90;;;;;;4884290;29;20055;-86
2023/06/11 05:46:57;;;;;;;11.88;9.23;;;18.70;99.90;;;;;;4917310;29;20176;-87
2023/06/11 05:49:23;;;;;;;11.63;9.30;;;18.70;99.90;;;;;;4871689;29;20055;-86
2023/06/11 05:51:49;;;;;;;11.80;8.88;;;18.70;99.90;;;;;;4871502;29;20071;-86
2023/06/11 05:54:15;;;;;;;13.35;9.77;;;18.70;99.90;;;;;;4917630;29;20054;-86
2023/06/11 05:56:45;;;;;;;12.35;9.32;;;18.80;99.90;;;;;;4887030;29;20037;-86
2023/06/11 05:59:11;;;;;;;13.60;9.77;;;18.80;99.90;;;;;;4902149;29;20112;-86
2023/06/11 06:01:37;;;;;;;13.20;9.60;;;18.90;99.90;;;;;;4871588;29;20047;-86
2023/06/11 06:04:04;;;;;;;11.85;9.63;;;19.00;99.90;;;;;;4886595;29;20044;-86
2023/06/11 06:06:31;;;;;;;15.98;9.90;;;19.10;99.90;;;;;;4898749;29;20118;-86
2023/06/11 06:08:59;;;;;;;12.90;10.18;;;19.10;99.90;;;;;;4871895;29;20427;-86
2023/06/11 06:11:25;;;;;;;13.20;10.07;;;19.10;99.90;;;;;;4900164;29;20510;-86
2023/06/11 06:13:52;;;;;;;11.25;9.38;;;19.20;99.90;;;;;;4901292;29;20028;-85
2023/06/11 06:16:18;;;;;;;13.00;8.93;;;19.20;99.90;;;;;;4900969;29;20087;-86
2023/06/11 06:18:46;;;;;;;13.00;10.10;;;19.30;99.90;;;;;;4901118;29;20055;-86
2023/06/11 06:21:14;;;;;;;12.05;9.70;;;19.30;99.90;;;;;;4867724;29;20029;-86
2023/06/11 06:23:43;;;;;;;17.38;10.43;;;19.40;99.90;;;;;;4870145;29;20484;-86
2023/06/11 06:26:12;;;;;;;11.63;8.68;;;19.40;99.90;;;;;;4890318;29;20036;-87
2023/06/11 06:28:39;;;;;;;13.68;9.48;;;19.50;99.90;;;;;;4877191;29;20072;-88
2023/06/11 06:31:07;;;;;;;12.00;9.45;;;19.50;99.90;;;;;;4866912;29;20056;-86
2023/06/11 06:33:37;;;;;;;11.02;9.70;;;19.60;99.90;;;;;;4865761;29;20029;-86
2023/06/11 06:36:04;;;;;;;13.15;9.32;;;19.60;99.90;;;;;;4882763;29;20485;-85
2023/06/11 06:38:32;;;;;;;13.10;10.02;;;19.70;99.90;;;;;;4863923;29;20041;-85
2023/06/11 06:40:58;;;;;;;11.00;9.30;;;19.80;99.90;;;;;;4908281;29;20063;-85
2023/06/11 06:43:24;;;;;;;12.57;9.18;;;19.80;99.90;;;;;;4903095;29;20342;-85
2023/06/11 06:45:55;;;;;;;11.00;9.02;;;19.90;99.90;;;;;;4904240;29;20044;-85
2023/06/11 06:48:25;;;;;;;11.23;9.27;;;20.00;99.90;;;;;;4900929;29;20037;-86
2023/06/11 06:50:54;;;;;;;11.95;8.57;;;20.10;99.90;;;;;;4866635;29;20088;-85
2023/06/11 06:53:20;;;;;;;12.13;8.45;;;20.20;99.90;;;;;;4873696;29;20088;-86
2023/06/11 06:55:47;;;;;;;11.68;8.90;;;20.20;99.90;;;;;;4899995;29;20028;-85
2023/06/11 06:58:38;;;;;;;11.43;8.80;;;20.30;99.90;;;;;;4867705;29;20051;-86
2023/06/11 07:01:38;;;;;;;12.52;8.98;;;20.40;99.90;;;;;;4900361;29;20040;-87
2023/06/11 07:04:06;;;;;;;12.48;8.85;;;20.50;99.90;;;;;;4883827;29;20056;-85
2023/06/11 07:06:32;;;;;;;11.15;8.98;;;20.50;99.90;;;;;;4867742;29;20036;-86
2023/06/11 07:08:58;;;;;;;11.48;8.18;;;20.60;99.90;;;;;;4905195;29;20172;-86
2023/06/11 07:11:24;;;;;;;12.13;8.45;;;20.70;99.90;;;;;;4882485;29;20107;-86
2023/06/11 07:13:50;;;;;;;11.73;8.10;;;20.80;99.90;;;;;;4882818;29;20164;-85
2023/06/11 07:16:16;;;;;;;12.75;8.68;;;20.90;99.90;;;;;;4879691;29;20033;-88
2023/06/11 07:18:49;;;;;;;11.32;8.18;;;21.00;99.90;;;;;;4870395;29;20344;-86
2023/06/11 07:21:17;;;;;;;9.93;8.52;;;21.10;99.90;;;;;;4884106;29;20044;-85
2023/06/11 07:23:43;;;;;;;11.73;7.97;;;21.10;99.90;;;;;;4884019;29;20040;-86
2023/06/11 07:26:13;;;;;;;14.68;8.57;;;21.20;99.90;;;;;;4884388;29;20039;-86
2023/06/11 07:28:40;;;;;;;12.63;8.23;;;21.30;99.90;;;;;;4899243;29;20032;-88
2023/06/11 07:31:07;;;;;;;9.82;7.63;;;21.40;99.90;;;;;;4880100;29;20037;-86
2023/06/11 07:33:33;;;;;;;10.65;7.97;;;21.50;99.90;;;;;;4865202;29;20041;-86
2023/06/11 07:36:00;;;;;;;9.38;8.30;;;21.70;99.90;;;;;;4888099;29;20067;-86
2023/06/11 07:38:26;;;;;;;9.75;7.75;;;21.70;99.90;;;;;;4841176;29;20127;-87
2023/06/11 07:40:52;;;;;;;11.30;8.00;;;21.90;99.90;;;;;;4880956;29;20062;-87
2023/06/11 07:43:19;;;;;;;13.05;8.38;;;21.90;99.90;;;;;;4879877;29;20554;-88
2023/06/11 07:45:54;;;;;;;10.48;8.55;;;22.00;99.90;;;;;;4867412;29;20095;-86
2023/06/11 07:48:21;;;;;;;9.55;7.95;;;22.20;99.90;;;;;;4819271;29;20100;-88
2023/06/11 07:50:49;;;;;;;9.23;7.47;;;22.20;99.90;;;;;;4883428;29;20048;-87
2023/06/11 07:53:19;;;;;;;10.07;8.00;;;22.30;99.90;;;;;;4868973;29;20395;-88
2023/06/11 07:55:50;;;;;;;9.68;8.02;;;22.40;99.90;;;;;;4899138;29;20053;-87
2023/06/11 07:58:18;;;;;;;10.00;7.55;;;22.50;99.90;;;;;;4868336;29;20497;-89
2023/06/11 08:00:44;;;;;;;11.10;7.90;;;22.60;99.90;;;;;;4899127;29;20048;-88
2023/06/11 08:03:12;;;;;;;13.57;8.18;;;22.70;99.90;;;;;;4882285;29;20036;-87
2023/06/11 08:05:38;;;;;;;12.43;7.57;;;22.70;99.90;;;;;;4877801;29;20080;-87
2023/06/11 08:08:04;;;;;;;10.00;7.85;;;22.80;99.90;;;;;;4913691;29;20096;-86
2023/06/11 08:10:32;;;;;;;11.52;7.78;;;23.00;99.90;;;;;;4892041;29;20032;-87
2023/06/11 08:12:58;;;;;;;9.88;7.50;;;23.10;99.90;;;;;;4883393;29;20044;-87
2023/06/11 08:15:24;;;;;;;12.60;7.93;;;23.10;99.90;;;;;;4883444;29;20427;-88
2023/06/11 08:17:53;;;;;;;10.45;7.85;;;23.30;99.90;;;;;;4883566;29;20088;-87
2023/06/11 08:20:19;;;;;;;11.40;7.53;;;23.40;99.90;;;;;;4852496;29;20510;-87
2023/06/11 08:22:45;;;;;;;11.02;7.90;;;23.50;99.90;;;;;;4883520;29;20068;-87
2023/06/11 08:25:11;;;;;;;9.90;7.38;;;23.70;99.90;;;;;;4890605;29;20037;-86
2023/06/11 08:27:37;;;;;;;12.35;8.00;;;23.80;99.90;;;;;;4898893;29;20910;-87
2023/06/11 08:30:05;;;;;;;9.75;7.40;;;23.90;99.90;;;;;;4892450;29;20037;-87
2023/06/11 08:32:31;;;;;;;12.30;7.72;;;24.00;99.90;;;;;;4887330;29;20744;-89
2023/06/11 08:34:57;;;;;;;10.57;6.75;;;24.00;99.90;;;;;;4890032;29;20045;-86
2023/06/11 08:37:23;;;;;;;8.48;7.38;;;24.10;99.90;;;;;;4880656;29;20057;-86
2023/06/11 08:39:49;;;;;;;13.05;7.53;;;24.20;99.90;;;;;;4880517;29;20037;-86
2023/06/11 08:42:15;;;;;;;8.40;7.43;;;24.30;99.90;;;;;;4853486;29;20048;-86
2023/06/11 08:44:44;;;;;;;9.13;7.25;;;24.50;99.90;;;;;;4899064;29;20064;-87
2023/06/11 08:47:12;;;;;;;10.73;7.05;;;24.50;99.90;;;;;;4865432;29;20045;-87
2023/06/11 08:49:42;;;;;;;11.43;7.32;;;24.60;99.90;;;;;;4886910;29;20035;-86
2023/06/11 08:52:09;;;;;;;9.40;7.10;;;24.70;99.90;;;;;;4901365;29;20039;-86
2023/06/11 08:54:35;;;;;;;12.10;7.03;;;24.70;99.90;;;;;;4900000;29;20559;-87
2023/06/11 08:57:02;;;;;;;8.70;7.28;;;24.90;99.90;;;;;;4887895;29;20036;-86
2023/06/11 08:59:28;;;;;;;9.57;7.03;;;25.00;99.90;;;;;;4888159;29;20045;-87
2023/06/11 09:01:54;;;;;;;9.73;7.53;;;25.10;99.90;;;;;;4879859;29;20040;-86
2023/06/11 09:04:23;;;;;;;8.80;7.40;;;25.20;99.90;;;;;;4887977;29;20044;-86
2023/06/11 09:06:50;;;;;;;9.52;6.72;;;25.30;99.90;;;;;;4888793;29;20057;-87
2023/06/11 09:09:16;;;;;;;9.80;7.00;;;25.40;99.90;;;;;;4853539;29;20069;-87
2023/06/11 09:11:43;;;;;;;11.82;7.05;;;25.50;99.90;;;;;;4874180;29;20033;-86
2023/06/11 09:14:08;;;;;;;11.38;7.30;;;25.50;99.90;;;;;;4899787;29;20304;-87
2023/06/11 09:16:53;;;;;;;11.57;7.53;;;25.70;99.90;;;;;;4884347;29;20041;-87
2023/06/11 09:19:20;;;;;;;8.05;6.60;;;25.70;99.90;;;;;;4869015;29;20045;-87
2023/06/11 09:21:53;;;;;;;9.05;7.00;;;25.80;99.90;;;;;;4853020;29;20088;-87
2023/06/11 09:24:20;;;;;;;11.38;7.07;;;25.90;99.90;;;;;;4884189;29;20045;-87
2023/06/11 09:27:06;;;;;;;9.55;6.95;;;26.00;99.90;;;;;;4884139;29;20436;-87
2023/06/11 09:29:34;;;;;;;9.13;6.80;;;26.10;99.90;;;;;;4884105;29;20093;-87
2023/06/11 09:32:03;;;;;;;8.50;6.93;;;26.20;99.90;;;;;;4868729;29;20035;-86
2023/06/11 09:34:29;;;;;;;7.93;6.57;;;26.40;99.90;;;;;;4884303;29;20036;-87
2023/06/11 09:36:55;;;;;;;11.00;6.28;;;26.50;99.90;;;;;;4899795;29;20087;-87
2023/06/11 09:39:22;;;;;;;8.65;6.75;;;26.70;99.90;;;;;;4868112;29;20045;-86
2023/06/11 09:41:50;;;;;;;10.77;6.85;;;26.80;99.90;;;;;;4884347;29;20039;-87
2023/06/11 09:44:17;;;;;;;9.80;7.00;;;26.80;99.90;;;;;;4868675;29;20064;-87
2023/06/11 09:46:47;;;;;;;10.65;6.47;;;26.90;99.90;;;;;;4886122;29;20055;-87
2023/06/11 09:49:15;;;;;;;8.68;6.15;;;27.00;99.90;;;;;;4868505;29;20041;-87
2023/06/11 09:51:42;;;;;;;12.02;6.85;;;27.00;99.90;;;;;;4902530;29;20025;-87
2023/06/11 09:54:12;;;;;;;8.57;6.85;;;27.10;99.90;;;;;;4902762;29;20075;-87
2023/06/11 09:56:38;;;;;;;7.95;6.50;;;27.20;99.90;;;;;;4886853;29;20048;-87
2023/06/11 09:59:05;;;;;;;9.20;6.82;;;27.30;99.90;;;;;;4886946;29;20503;-87
2023/06/11 10:01:33;;;;;;;9.75;6.30;;;27.40;99.90;;;;;;4902496;29;20036;-90
2023/06/11 10:04:00;;;;;;;8.80;6.20;;;27.50;99.90;;;;;;4886745;29;20048;-87
2023/06/11 10:06:33;;;;;;;8.88;6.90;;;27.70;99.90;;;;;;4900787;29;20037;-87
2023/06/11 10:09:04;;;;;;;10.50;6.30;;;27.80;99.90;;;;;;4886181;29;20049;-87
2023/06/11 10:11:38;;;;;;;8.57;6.10;;;27.80;99.90;;;;;;4917342;29;20029;-87
2023/06/11 10:14:05;;;;;;;7.50;6.20;;;28.00;99.90;;;;;;4917853;29;20032;-87
2023/06/11 10:16:32;;;;;;;9.68;6.40;;;28.00;99.90;;;;;;4886540;29;20430;-88
2023/06/11 10:19:08;;;;;;;8.15;6.68;;;28.10;99.90;;;;;;4902054;29;20041;-88
2023/06/11 10:21:44;;;;;;;9.52;6.70;;;28.20;99.90;;;;;;4886505;29;20040;-87
2023/06/11 10:24:20;;;;;;;;;;;28.30;99.90;;;;;;4887072;29;20460;-87
2023/06/11 10:27:10;;;;;;;10.70;5.88;;;28.40;99.70;;;;;;4855693;29;19919;-87
2023/06/11 10:29:49;;;;;;;10.07;6.53;;;28.50;99.90;;;;;;4882845;29;20312;-87
2023/06/11 10:32:22;;;;;;;11.35;6.65;;;28.60;99.60;;;;;;4899630;29;20033;-87
2023/06/11 10:34:55;;;;;;;10.00;6.05;;;28.60;99.80;;;;;;4871495;29;20063;-87
2023/06/11 10:37:31;;;;;;;11.30;6.80;;;28.70;99.50;;;;;;4902301;29;20040;-87
2023/06/11 10:39:58;;;;;;;7.95;6.22;;;28.80;99.20;;;;;;4885833;29;20425;-87
2023/06/11 10:42:34;;;;;;;12.02;6.18;;;28.80;99.20;;;;;;4886336;29;20131;-88
2023/06/11 10:45:00;;;;;;;8.05;6.07;;;28.90;98.80;;;;;;4896862;29;20044;-87
2023/06/11 10:47:45;;;;;;;10.65;6.47;;;28.90;98.80;;;;;;4882898;29;20065;-88
2023/06/11 10:50:13;;;;;;;8.63;6.43;;;29.00;98.80;;;;;;4894030;29;20415;-89
2023/06/11 10:52:54;;;;;;;9.38;6.22;;;29.10;98.50;;;;;;4891382;29;20044;-87
2023/06/11 10:55:22;;;;;;;8.60;5.53;;;29.10;98.50;;;;;;4900678;29;20032;-87
2023/06/11 10:57:53;;;;;;;9.30;6.22;;;29.20;98.80;;;;;;4900294;29;20031;-88
2023/06/11 11:00:22;;;;;;;8.05;6.35;;;29.30;98.70;;;;;;4900452;29;20040;-87
2023/06/11 11:03:09;;;;;;;8.98;5.90;;;29.40;98.20;;;;;;4880611;29;20597;-86
2023/06/11 11:05:43;;;;;;;8.20;6.00;;;29.30;97.90;;;;;;4888664;29;20037;-87
2023/06/11 11:08:09;;;;;;;7.22;5.10;;;29.40;97.40;;;;;;4896813;29;20033;-87
2023/06/11 11:10:37;;;;;;;8.60;5.63;;;29.50;97.20;;;;;;4877216;29;20100;-88
2023/06/11 11:13:03;;;;;;;7.68;5.32;;;29.60;97.10;;;;;;4865412;29;20041;-88
2023/06/11 11:15:30;;;;;;;7.10;5.53;;;29.80;97.30;;;;;;4875757;29;20049;-87
2023/06/11 11:17:57;;;;;;;6.68;5.32;;;29.90;96.90;;;;;;4888641;29;20431;-88
2023/06/11 11:20:23;;;;;;;7.90;5.20;;;30.00;96.70;;;;;;4908782;29;20103;-89
2023/06/11 11:23:09;;;;;;;8.52;5.47;;;29.90;96.30;;;;;;4880118;29;20132;-88
2023/06/11 11:25:52;;;;;;;;;;;;;;;;;;;;;
2023/06/11 11:28:25;;;;;;;6.78;5.35;;;30.00;96.50;;;;;;4887320;29;20423;-88
2023/06/11 11:31:05;;;;;;;7.85;4.97;;;30.20;95.70;;;;;;4911862;29;20123;-89
2023/06/11 11:33:35;;;;;;;7.97;4.90;;;30.20;96.00;;;;;;4880433;29;20048;-89
2023/06/11 11:36:04;;;;;;;9.70;5.03;;;30.30;95.50;;;;;;4866481;29;20049;-88
2023/06/11 11:38:36;;;;;;;7.80;5.00;;;30.30;95.10;;;;;;4879949;29;20352;-91
2023/06/11 11:41:06;;;;;;;6.55;4.75;;;30.40;95.10;;;;;;4877252;29;20032;-89
2023/06/11 11:43:49;;;;;;;8.25;5.00;;;30.40;95.10;;;;;;4882624;29;20036;-89
2023/06/11 11:46:23;;;;;;;8.15;4.88;;;30.50;95.00;;;;;;4883922;29;20079;-90
2023/06/11 11:48:55;;;;;;;7.65;5.10;;;30.60;94.80;;;;;;4882334;29;20032;-90
2023/06/11 11:51:40;;;;;;;6.78;5.00;;;30.60;94.80;;;;;;4849698;29;20157;-89
2023/06/11 11:54:27;;;;;;;7.30;4.50;;;30.70;94.80;;;;;;4898474;29;20279;-93
2023/06/11 11:57:06;;;;;;;7.05;5.05;;;30.80;94.90;;;;;;4904925;29;20029;-90
2023/06/11 11:59:37;;;;;;;7.32;4.72;;;30.80;94.50;;;;;;4881222;29;20122;-89
2023/06/11 12:02:04;;;;;;;8.73;5.05;;;30.80;94.30;;;;;;4881438;29;20029;-88
2023/06/11 12:04:42;;;;;;;7.53;4.63;;;30.90;94.00;;;;;;4899232;29;20037;-88
2023/06/11 12:07:14;;;;;;;6.80;4.97;;;31.00;93.90;;;;;;4889567;29;20064;-90
2023/06/11 12:09:41;;;;;;;8.13;4.78;;;31.00;93.80;;;;;;4904335;29;20100;-86
2023/06/11 12:12:08;;;;;;;7.40;4.88;;;30.90;93.60;;;;;;4882854;29;20036;-86
2023/06/11 12:14:37;;;;;;;6.85;4.47;;;30.90;93.50;;;;;;4853813;29;20036;-86
2023/06/11 12:17:09;;;;;;;9.40;4.70;;;30.80;93.30;;;;;;4898326;29;20040;-86
2023/06/11 12:19:35;;;;;;;8.63;4.63;;;30.80;93.10;;;;;;4895745;29;20041;-86
2023/06/11 12:22:04;;;;;;;8.00;4.43;;;30.70;93.20;;;;;;4899037;29;20071;-87
2023/06/11 12:24:32;;;;;;;8.40;4.65;;;30.70;93.20;;;;;;4883012;29;20070;-87
2023/06/11 12:26:59;;;;;;;6.32;4.65;;;30.60;93.20;;;;;;4876815;29;20040;-86
2023/06/11 12:29:25;;;;;;;13.93;4.82;;;30.70;93.10;;;;;;4903386;29;20056;-85
2023/06/11 12:31:51;;;;;;;9.30;4.90;;;30.80;93.20;;;;;;4901617;29;20475;-88
2023/06/11 12:34:18;;;;;;;7.82;4.53;;;31.00;93.00;;;;;;4898301;29;20049;-86
2023/06/11 12:36:45;;;;;;;6.28;4.45;;;31.10;92.60;;;;;;4870332;29;20489;-86
2023/06/11 12:39:11;;;;;;;8.25;4.32;;;31.00;92.10;;;;;;4892792;29;20048;-86
2023/06/11 12:41:37;;;;;;;6.95;4.30;;;30.90;91.80;;;;;;4880934;29;20089;-85
2023/06/11 12:44:03;;;;;;;5.60;4.15;;;30.90;91.70;;;;;;4853528;29;20053;-87
2023/06/11 12:46:30;;;;;;;6.70;4.32;;;31.00;91.50;;;;;;4865419;29;20383;-87
2023/06/11 12:48:57;;;;;;;10.90;4.50;;;31.00;91.50;;;;;;4896081;29;20036;-86